Station: Walungurru (Kintore)

  Atmospheric Gas Attenuation - ITU Rec 676-11   --------------- db/100km ---------------
Date Time Temp RH % AH g/m3 Dew Point Wind Direction Speed kph Gust kph Barometer mB Rainfall Since 9am 24GHz 47GHz 76GHz 122GHz 134GHz 241GHz
07 06:40 10.1 72 6.81 5.3 17 19 1016.1 0 15.9 24.2 34.5 90.3 79.4 271.3
07 06:30 10.3 71 6.8 5.3 17 26 1014.6 0 15.9 24.0 34.3 89.8 78.9 269.8
07 06:20 10.4 70 6.75 5.2 17 20 1015.9 0 15.8 24.0 34.1 89.3 78.3 267.5
07 06:10 10.5 71 6.89 5.5 20 24 1015.8 0 16.1 24.2 34.7 90.6 80.0 273.5
07 06:00 10.5 71 6.89 5.5 19 26 1014.2 0 16.1 24.1 34.6 90.5 79.9 273.1
07 05:49 10.7 73 7.17 6.1 24 30 1015.4 0 16.7 24.5 35.7 93.3 83.4 285.5
07 05:40 10.6 73 7.13 6 26 30 1015.3 0 16.6 24.5 35.5 93.0 83.0 284.0
07 05:30 10.6 74 7.22 6.2 20 30 1013.9 0 16.8 24.6 35.8 93.8 84.0 287.8
07 05:20 9.8 76 7.05 5.8 15 15 1015.5 0 16.4 24.6 35.6 93.1 82.8 283.2
07 05:10 9.6 77 7.06 5.8 15 17 1015.5 0 16.5 24.7 35.7 93.5 83.1 284.4
07 04:50 9.3 76 6.83 5.3 9 9 1015.5 0 16.0 24.4 34.9 91.3 80.4 274.9
07 04:39 9.7 75 6.92 5.5 13 17 1015.5 0 16.2 24.4 35.1 91.8 81.2 277.6
07 04:30 9.9 75 7 5.7 15 22 1013.9 0 16.3 24.4 35.3 92.3 81.9 280.2
07 04:20 9.7 76 7.01 5.7 15 20 1015.4 0 16.4 24.6 35.5 92.8 82.4 281.7
07 04:10 9.8 75 6.96 5.6 13 15 1015.4 0 16.3 24.5 35.2 92.1 81.6 279.1
07 04:00 9.9 75 7 5.7 15 19 1013.9 0 16.3 24.4 35.3 92.3 81.9 280.2
07 03:50 10.2 75 7.14 6 15 17 1015.4 0 16.6 24.6 35.8 93.6 83.5 285.9
07 03:40 10.3 74 7.09 5.9 13 15 1015.4 0 16.5 24.5 35.5 92.9 82.8 283.3
07 03:30 10.4 73 7.04 5.8 17 22 1013.7 0 16.4 24.4 35.2 92.1 81.9 280.2
07 03:20 10.8 72 7.12 6 20 22 1015.3 0 16.6 24.4 35.4 92.7 82.6 282.8
07 03:10 11 71 7.11 6 20 26 1015.4 0 16.5 24.4 35.3 92.3 82.3 281.7
07 03:00 11.1 71 7.15 6 22 32 1013.9 0 16.6 24.4 35.3 92.5 82.6 282.8
07 02:50 11.2 71 7.2 6.1 24 30 1015.3 0 16.7 24.5 35.5 93.0 83.2 285.0
07 02:40 11.3 70 7.14 6 24 32 1015.5 0 16.6 24.3 35.3 92.3 82.4 282.0
07 02:30 11.5 70 7.23 6.2 30 37 1014 0 16.8 24.4 35.5 92.9 83.2 285.0
07 02:20 11.6 69 7.17 6.1 26 30 1015.5 0 16.6 24.3 35.3 92.3 82.4 282.3
07 02:10 11.7 69 7.22 6.2 32 35 1015.6 0 16.7 24.4 35.4 92.7 83.0 284.2
07 02:00 11.7 68 7.11 6 22 28 1014.2 0 16.5 24.1 34.9 91.4 81.5 278.9
07 01:50 12 67 7.14 6.1 22 26 1015.8 0 16.5 24.2 35.0 91.5 81.7 279.6
07 01:40 12.1 67 7.19 6.2 24 26 1015.8 0 16.7 24.2 35.1 91.9 82.2 281.5
07 01:30 12.2 66 7.12 6 20 30 1014.4 0 16.5 24.0 34.8 90.9 81.1 277.7
07 01:20 12.4 65 7.1 6 19 22 1015.9 0 16.4 24.0 34.7 90.7 80.7 276.4
07 01:10 12.6 64 7.08 6 26 32 1015.8 0 16.4 23.9 34.5 90.2 80.3 274.8
07 01:00 12.8 63 7.06 5.9 22 30 1014.4 0 16.3 23.8 34.3 89.6 79.7 272.9
07 00:50 13 62 7.03 5.9 22 26 1015.9 0 16.3 23.7 34.1 89.3 79.2 271.2
07 00:40 13.4 62 7.21 6.3 26 30 1015.8 0 16.6 23.9 34.6 90.6 81.1 277.8
07 00:30 13.7 61 7.22 6.3 26 33 1014.3 0 16.7 23.8 34.5 90.3 80.8 276.8
07 00:20 13.9 61 7.31 6.5 28 33 1015.8 0 16.8 23.9 34.8 91.1 81.8 280.5
07 00:10 14 59 7.12 6.1 26 30 1015.8 0 16.4 23.6 34.0 89.0 79.4 271.8
07 00:00 14.1 59 7.16 6.2 26 35 1014.4 0 16.5 23.6 34.1 89.2 79.7 272.9
06 23:50 14.2 57 6.96 5.8 26 33 1015.9 0 16.1 23.3 33.4 87.2 77.2 264.2
06 23:40 14.4 57 7.05 6 28 32 1016 0 16.3 23.4 33.6 87.9 78.1 267.4
06 23:30 14.6 55 6.88 5.7 28 37 1014.5 0 15.9 23.0 32.8 85.9 75.7 259.1
06 23:20 14.8 54 6.84 5.6 24 33 1016 0 15.8 23.0 32.7 85.4 75.1 257.1
06 23:10 15 56 7.18 6.3 26 32 1016 0 16.5 23.4 33.9 88.6 79.1 271.0
06 23:00 15.2 58 7.53 7 28 41 1014.4 0 17.2 23.9 35.0 91.7 83.1 285.2
06 22:50 15.7 56 7.49 7 26 33 1015.7 0 17.1 23.7 34.7 90.9 82.2 282.0
06 22:40 16 53 7.22 6.4 35 39 1015.5 0 16.6 23.2 33.6 87.8 78.6 269.3
06 22:30 17 42 6.08 4 20 32 1013.7 0 14.1 21.3 29.0 75.7 64.1 218.5
06 22:20 17 41 5.93 3.7 19 20 1015.2 0 13.8 21.1 28.6 74.4 62.4 212.7
06 22:10 17 40 5.79 3.3 17 19 1015.1 0 13.5 20.9 28.1 73.1 60.8 207.1
06 22:00 17.1 40 5.82 3.4 17 20 1013.6 0 13.6 20.9 28.1 73.2 61.0 207.8
06 21:50 17 40 5.79 3.3 13 15 1015 0 13.5 20.9 28.1 73.1 60.8 207.1
06 21:40 17.1 40 5.82 3.4 17 19 1015.1 0 13.6 20.9 28.1 73.3 61.1 208.1
06 21:30 17.2 40 5.86 3.5 26 32 1013.6 0 13.6 20.9 28.2 73.5 61.4 209.1
06 21:20 17.2 38 5.56 2.8 20 24 1015 0 13.0 20.5 27.2 70.8 58.1 197.5
06 21:10 17.3 37 5.45 2.5 19 20 1015 0 12.8 20.4 26.8 69.8 56.8 192.9
06 21:00 17.4 37 5.48 2.6 19 26 1013.3 0 12.8 20.3 26.8 69.8 57.0 193.6
06 20:50 17.3 36 5.3 2.1 15 19 1014.7 0 12.5 20.2 26.3 68.4 55.1 187.0
06 20:40 17.3 36 5.3 2.1 19 20 1014.6 0 12.5 20.1 26.3 68.4 55.1 187.0
06 20:30 17.3 36 5.3 2.1 17 26 1012.9 0 12.5 20.1 26.2 68.2 55.0 186.7
06 20:20 17.4 34 5.04 1.4 17 19 1014.4 0 11.9 19.8 25.4 66.0 52.1 176.6
06 20:10 17.5 34 5.07 1.5 17 20 1014.3 0 12.0 19.8 25.5 66.1 52.4 177.5
06 20:00 17.5 34 5.07 1.5 20 24 1014.2 0 12.0 19.8 25.5 66.1 52.4 177.5
06 19:50 17.4 33 4.89 1 13 17 1014 0 11.6 19.6 24.9 64.6 50.5 170.8
06 19:40 17.4 33 4.89 1 20 22 1014 0 11.6 19.6 24.9 64.6 50.5 170.8
06 19:30 17.4 32 4.74 0.6 19 22 1012.4 0 11.3 19.3 24.3 63.2 48.8 164.8
06 19:20 17.3 32 4.71 0.5 19 20 1013.7 0 11.2 19.3 24.3 63.1 48.6 164.1
06 19:10 17.3 31 4.57 0 17 20 1013.6 0 10.9 19.1 23.8 61.8 47.1 158.7
06 19:00 17.2 31 4.54 -0.1 17 24 1012 0 10.9 19.1 23.7 61.5 46.7 157.6
06 18:50 17.3 30 4.42 -0.4 20 22 1013.4 0 10.6 18.9 23.4 60.5 45.4 153.0
06 18:40 17.5 30 4.47 -0.2 22 24 1013.3 0 10.7 19.0 23.5 60.8 45.9 154.5
06 18:30 17.7 28 4.22 -1 20 26 1011.8 0 10.2 18.5 22.6 58.4 43.0 144.6
06 18:20 18 27 4.15 -1.3 19 22 1013.2 0 10.0 18.4 22.3 57.7 42.2 141.7
06 18:10 18.2 27 4.2 -1.1 26 30 1013.1 0 10.1 18.5 22.4 58.0 42.6 143.2
06 18:00 18.4 26 4.09 -1.4 22 28 1011.4 0 9.9 18.2 21.9 56.8 41.3 138.6
06 17:50 18.7 25 4 -1.7 26 30 1012.7 0 9.7 18.1 21.6 55.9 40.3 135.0
06 17:39 18.6 25 3.98 -1.8 26 32 1012.6 0 9.7 18.1 21.6 55.8 40.1 134.4
06 17:30 18.7 24 3.84 -2.3 22 28 1010.9 0 9.4 17.8 21.1 54.5 38.6 129.0
06 17:20 18.9 24 3.89 -2.1 20 30 1012.4 0 9.5 17.9 21.2 54.9 39.0 130.7
06 17:10 18.9 24 3.89 -2.1 20 24 1012.3 0 9.5 17.9 21.2 54.9 39.0 130.7
06 17:00 19.4 23 3.84 -2.2 17 26 1010.6 0 9.3 17.7 20.9 54.0 38.2 127.9
06 16:50 19.2 24 3.96 -1.8 24 28 1012.2 0 9.6 17.9 21.4 55.2 39.6 132.7
06 16:40 19 24 3.91 -2 28 32 1012.1 0 9.5 17.9 21.3 54.9 39.2 131.2
06 16:30 18.9 25 4.05 -1.5 24 32 1010.3 0 9.8 18.0 21.7 56.1 40.6 136.2
06 16:20 19.2 25 4.12 -1.3 19 22 1011.7 0 9.9 18.1 21.8 56.5 41.2 138.4
06 16:10 18.9 25 4.05 -1.5 28 35 1011.7 0 9.8 18.1 21.7 56.1 40.6 136.4
06 16:00 19 25 4.07 -1.4 24 33 1010.3 0 9.8 18.1 21.7 56.2 40.8 136.8
06 15:50 18.9 26 4.21 -1 26 32 1011.9 0 10.1 18.3 22.2 57.5 42.3 142.2
06 15:40 19.2 26 4.29 -0.7 24 28 1011.9 0 10.3 18.3 22.4 58.0 43.0 144.6
06 15:29 18.9 26 4.21 -1 20 28 1012 0 10.1 18.3 22.2 57.5 42.3 142.2
06 15:20 18.8 26 4.19 -1.1 22 28 1012.1 0 10.1 18.3 22.2 57.4 42.2 141.7
06 15:10 18.6 27 4.3 -0.7 19 30 1012.2 0 10.3 18.5 22.6 58.5 43.4 146.1
06 15:00 18.6 26 4.14 -1.3 26 46 1010.5 0 10.0 18.2 22.0 57.0 41.7 140.0
06 14:50 18.7 26 4.16 -1.2 26 35 1012.2 0 10.0 18.3 22.1 57.2 41.9 140.8
06 14:40 18.4 27 4.25 -0.9 32 41 1012.2 0 10.2 18.5 22.5 58.2 43.0 144.6
06 14:30 18.4 28 4.4 -0.4 22 35 1010.6 0 10.5 18.6 22.9 59.4 44.5 149.9
06 14:20 18 27 4.15 -1.3 26 33 1012.4 0 10.0 18.4 22.3 57.7 42.2 141.6
06 14:10 17.5 29 4.32 -0.7 20 24 1012.4 0 10.4 18.7 22.9 59.5 44.2 148.8
06 14:00 17.1 30 4.37 -0.6 22 37 1010.8 0 10.5 18.8 23.2 60.1 44.9 151.2

Last Refresh: 07-Aug-2020 06:50:42

Most of the information presented on this site is sourced from the Bureau of Meteorology.  Copyright in all material sourced from the Bureau of Meteorology resides with the Commonwealth of Australia.